Subpeak Weather

  • Time Avg. Air Temp Dew Point Avg. Rel Humidity Avg. 2 Min Wind Speed Max Gust Velocity MGV Time MGV Direction Avg. Spot Wind Velocity
    2021-04-15 07:10:000° C-18° C25%38 km/h42 km/h07:08:00NE36 km/h
    06:10:001° C-18° C24%36 km/h41 km/h06:08:00NE38 km/h
    05:10:000° C-17° C25%19 km/h30 km/h05:07:00NE22 km/h
    04:10:001° C-19° C22%30 km/h33 km/h04:06:00NE31 km/h
    03:10:001° C-18° C23%22 km/h27 km/h03:06:00NE24 km/h
    02:10:001° C-19° C22%27 km/h33 km/h02:09:00NE26 km/h
    01:10:001° C-19° C20%26 km/h30 km/h01:08:00NE26 km/h
    00:10:001° C-19° C20%33 km/h36 km/h00:08:00NE30 km/h
    23:10:001° C-19° C21%23 km/h27 km/h23:10:00NE23 km/h
    22:10:001° C-19° C23%29 km/h34 km/h22:08:00N27 km/h
    21:10:001° C-17° C24%33 km/h46 km/h21:06:00NE34 km/h
    20:10:001° C-18° C26%43 km/h47 km/h20:07:00NE40 km/h
    19:10:001° C-17° C25%26 km/h32 km/h19:10:00N22 km/h
    18:10:002° C-15° C26%10 km/h20 km/h18:06:00N11 km/h
    17:10:002° C-16° C25%12 km/h18 km/h17:10:00NE14 km/h
    16:10:003° C-16° C24%11 km/h16 km/h16:10:00N7 km/h
    15:10:002° C-17° C25%8 km/h14 km/h15:07:00NE9 km/h
    14:10:001° C-16° C26%5 km/h19 km/h14:06:00NE7 km/h
    13:10:000° C-18° C24%14 km/h24 km/h13:07:00NE15 km/h
    12:10:00-1° C-21° C20%19 km/h25 km/h12:06:00NE21 km/h
    11:10:00-1° C-22° C19%30 km/h34 km/h11:10:00NE29 km/h
    10:10:00-1° C-23° C17%37 km/h41 km/h10:07:00NE38 km/h
    09:10:00-2° C-22° C19%37 km/h41 km/h09:10:00NE37 km/h
    08:10:00-2° C-22° C19%30 km/h33 km/h08:08:00NE30 km/h
  • Time Avg. Air Temp Dew Point Avg. Rel Humidity Avg. 2 Min Wind Speed Max Gust Velocity MGV Time MGV Direction Avg. Spot Wind Velocity
    2021-04-15 07:10:000° C-18° C25%38 km/h42 km/h07:08:00NE36 km/h
    07:05:000° C-17° C25%38 km/h42 km/h07:02:00NE39 km/h
    07:00:000° C-18° C24%39 km/h45 km/h06:59:00NE38 km/h
    06:55:001° C-17° C25%37 km/h40 km/h06:52:00NE37 km/h
    06:50:001° C-18° C25%37 km/h39 km/h06:48:00NE37 km/h
    06:45:000° C-17° C25%35 km/h38 km/h06:44:00NE36 km/h
    06:40:000° C-17° C24%35 km/h38 km/h06:38:00NE34 km/h
    06:35:000° C-18° C24%36 km/h40 km/h06:33:00NE36 km/h
    06:30:000° C-18° C25%36 km/h39 km/h06:30:00NE35 km/h
    06:25:000° C-17° C24%35 km/h39 km/h06:21:00NE35 km/h
    06:20:000° C-17° C25%35 km/h38 km/h06:20:00NE35 km/h
    06:15:000° C-17° C24%36 km/h39 km/h06:12:00NE37 km/h
    06:10:001° C-18° C24%36 km/h41 km/h06:08:00NE38 km/h

Explore More

Get Revelstoke news, offers, and events via email.